sensor_id;sensor_type;location;lat;lon;timestamp;temperature;humidity
13563;DHT22;31150;49.072;7.970;2022-07-01T00:00:40;16.00;99.90
13563;DHT22;31150;49.072;7.970;2022-07-01T00:05:43;16.00;99.90
13563;DHT22;31150;49.072;7.970;2022-07-01T00:10:46;16.00;99.90
13563;DHT22;31150;49.072;7.970;2022-07-01T00:15:48;15.90;99.90
13563;DHT22;31150;49.072;7.970;2022-07-01T00:20:51;15.80;99.90
13563;DHT22;31150;49.072;7.970;2022-07-01T00:25:54;15.80;99.90
13563;DHT22;31150;49.072;7.970;2022-07-01T00:30:57;15.90;99.90
13563;DHT22;31150;49.072;7.970;2022-07-01T00:35:59;15.80;99.90
13563;DHT22;31150;49.072;7.970;2022-07-01T00:41:02;15.70;99.90
13563;DHT22;31150;49.072;7.970;2022-07-01T00:46:05;15.80;99.90
13563;DHT22;31150;49.072;7.970;2022-07-01T00:51:08;15.80;99.90
13563;DHT22;31150;49.072;7.970;2022-07-01T00:56:11;15.80;99.90
13563;DHT22;31150;49.072;7.970;2022-07-01T01:01:14;15.70;99.90
13563;DHT22;31150;49.072;7.970;2022-07-01T01:06:16;15.60;99.90
13563;DHT22;31150;49.072;7.970;2022-07-01T01:11:20;15.50;99.90
13563;DHT22;31150;49.072;7.970;2022-07-01T01:16:23;15.60;99.90
13563;DHT22;31150;49.072;7.970;2022-07-01T01:21:28;15.70;99.90
13563;DHT22;31150;49.072;7.970;2022-07-01T01:26:31;15.70;99.90
13563;DHT22;31150;49.072;7.970;2022-07-01T01:31:34;15.70;99.90
13563;DHT22;31150;49.072;7.970;2022-07-01T01:36:36;15.70;99.90
13563;DHT22;31150;49.072;7.970;2022-07-01T01:41:39;15.70;99.90
13563;DHT22;31150;49.072;7.970;2022-07-01T01:46:42;15.60;99.90
13563;DHT22;31150;49.072;7.970;2022-07-01T01:51:45;15.70;99.90
13563;DHT22;31150;49.072;7.970;2022-07-01T01:56:48;15.70;99.90
13563;DHT22;31150;49.072;7.970;2022-07-01T02:01:50;15.80;99.90
13563;DHT22;31150;49.072;7.970;2022-07-01T02:06:53;15.90;99.90
13563;DHT22;31150;49.072;7.970;2022-07-01T02:11:56;15.90;99.90
13563;DHT22;31150;49.072;7.970;2022-07-01T02:16:58;15.90;99.90
13563;DHT22;31150;49.072;7.970;2022-07-01T02:22:01;15.90;99.90
13563;DHT22;31150;49.072;7.970;2022-07-01T02:27:04;15.90;99.90
13563;DHT22;31150;49.072;7.970;2022-07-01T02:32:07;15.80;99.90
13563;DHT22;31150;49.072;7.970;2022-07-01T02:37:10;15.70;99.90
13563;DHT22;31150;49.072;7.970;2022-07-01T02:42:13;15.50;99.90
13563;DHT22;31150;49.072;7.970;2022-07-01T02:47:38;15.50;99.90
13563;DHT22;31150;49.072;7.970;2022-07-01T02:52:43;15.60;99.90
13563;DHT22;31150;49.072;7.970;2022-07-01T02:57:46;15.80;99.90
13563;DHT22;31150;49.072;7.970;2022-07-01T03:02:51;15.70;99.90
13563;DHT22;31150;49.072;7.970;2022-07-01T03:07:54;15.50;99.90
13563;DHT22;31150;49.072;7.970;2022-07-01T03:12:57;15.40;99.90
13563;DHT22;31150;49.072;7.970;2022-07-01T03:18:01;15.60;99.90
13563;DHT22;31150;49.072;7.970;2022-07-01T03:23:04;15.70;99.90
13563;DHT22;31150;49.072;7.970;2022-07-01T03:28:06;15.70;99.90
13563;DHT22;31150;49.072;7.970;2022-07-01T03:33:09;15.60;99.90
13563;DHT22;31150;49.072;7.970;2022-07-01T03:38:12;15.60;99.90
13563;DHT22;31150;49.072;7.970;2022-07-01T03:43:15;15.60;99.90
13563;DHT22;31150;49.072;7.970;2022-07-01T03:48:22;15.50;99.90
13563;DHT22;31150;49.072;7.970;2022-07-01T03:53:25;15.50;99.90
13563;DHT22;31150;49.072;7.970;2022-07-01T03:58:46;15.40;99.90
13563;DHT22;31150;49.072;7.970;2022-07-01T04:03:49;15.30;99.90
13563;DHT22;31150;49.072;7.970;2022-07-01T04:08:53;15.40;99.90
13563;DHT22;31150;49.072;7.970;2022-07-01T04:13:56;15.40;99.90
13563;DHT22;31150;49.072;7.970;2022-07-01T04:18:58;15.40;99.90
13563;DHT22;31150;49.072;7.970;2022-07-01T04:24:01;15.50;99.90
13563;DHT22;31150;49.072;7.970;2022-07-01T04:29:04;15.50;99.90
13563;DHT22;31150;49.072;7.970;2022-07-01T04:34:08;15.60;99.90
13563;DHT22;31150;49.072;7.970;2022-07-01T04:39:11;15.70;99.90
13563;DHT22;31150;49.072;7.970;2022-07-01T04:44:14;15.80;99.90
13563;DHT22;31150;49.072;7.970;2022-07-01T04:49:17;15.70;99.90
13563;DHT22;31150;49.072;7.970;2022-07-01T04:54:20;15.70;99.90
13563;DHT22;31150;49.072;7.970;2022-07-01T04:59:23;15.70;99.90
13563;DHT22;31150;49.072;7.970;2022-07-01T05:04:26;15.60;99.90
13563;DHT22;31150;49.072;7.970;2022-07-01T05:09:30;15.50;99.90
13563;DHT22;31150;49.072;7.970;2022-07-01T05:14:33;15.70;99.90
13563;DHT22;31150;49.072;7.970;2022-07-01T05:19:37;15.80;99.90
13563;DHT22;31150;49.072;7.970;2022-07-01T05:24:58;15.90;99.90
13563;DHT22;31150;49.072;7.970;2022-07-01T05:30:01;16.00;99.90
13563;DHT22;31150;49.072;7.970;2022-07-01T05:35:04;16.00;99.90
13563;DHT22;31150;49.072;7.970;2022-07-01T05:40:08;16.00;99.90
13563;DHT22;31150;49.072;7.970;2022-07-01T05:45:11;15.80;99.90
13563;DHT22;31150;49.072;7.970;2022-07-01T05:50:13;15.70;99.90
13563;DHT22;31150;49.072;7.970;2022-07-01T05:55:18;15.70;99.90
13563;DHT22;31150;49.072;7.970;2022-07-01T06:00:20;15.80;99.90
13563;DHT22;31150;49.072;7.970;2022-07-01T06:05:23;16.00;99.90
13563;DHT22;31150;49.072;7.970;2022-07-01T06:10:26;16.30;99.90
13563;DHT22;31150;49.072;7.970;2022-07-01T06:15:29;16.60;99.90
13563;DHT22;31150;49.072;7.970;2022-07-01T06:20:32;16.80;99.90
13563;DHT22;31150;49.072;7.970;2022-07-01T06:25:34;16.90;99.90
13563;DHT22;31150;49.072;7.970;2022-07-01T06:30:37;17.00;99.90
13563;DHT22;31150;49.072;7.970;2022-07-01T06:35:40;16.90;99.90
13563;DHT22;31150;49.072;7.970;2022-07-01T06:40:43;16.90;99.90
13563;DHT22;31150;49.072;7.970;2022-07-01T06:46:06;16.90;99.90
13563;DHT22;31150;49.072;7.970;2022-07-01T06:51:08;16.60;99.90
13563;DHT22;31150;49.072;7.970;2022-07-01T06:56:13;16.50;99.90
13563;DHT22;31150;49.072;7.970;2022-07-01T07:01:16;16.30;99.90
13563;DHT22;31150;49.072;7.970;2022-07-01T07:06:19;16.30;99.90
13563;DHT22;31150;49.072;7.970;2022-07-01T07:11:22;16.20;99.90
13563;DHT22;31150;49.072;7.970;2022-07-01T07:16:25;16.30;99.90
13563;DHT22;31150;49.072;7.970;2022-07-01T07:21:28;16.50;99.90
13563;DHT22;31150;49.072;7.970;2022-07-01T07:26:32;16.90;99.90
13563;DHT22;31150;49.072;7.970;2022-07-01T07:32:04;17.20;99.90
13563;DHT22;31150;49.072;7.970;2022-07-01T07:37:11;17.40;99.90
13563;DHT22;31150;49.072;7.970;2022-07-01T07:42:14;17.20;99.90
13563;DHT22;31150;49.072;7.970;2022-07-01T07:47:16;17.30;99.90
13563;DHT22;31150;49.072;7.970;2022-07-01T07:52:19;17.50;99.90
13563;DHT22;31150;49.072;7.970;2022-07-01T07:57:22;17.70;99.90
13563;DHT22;31150;49.072;7.970;2022-07-01T08:02:25;18.10;99.90
13563;DHT22;31150;49.072;7.970;2022-07-01T08:07:28;18.30;99.90
13563;DHT22;31150;49.072;7.970;2022-07-01T08:12:30;18.50;99.90
13563;DHT22;31150;49.072;7.970;2022-07-01T08:17:34;18.40;99.90
13563;DHT22;31150;49.072;7.970;2022-07-01T08:22:37;18.60;99.90
13563;DHT22;31150;49.072;7.970;2022-07-01T08:33:41;19.00;99.90
13563;DHT22;31150;49.072;7.970;2022-07-01T08:38:45;19.30;99.90
13563;DHT22;31150;49.072;7.970;2022-07-01T08:43:50;19.20;99.90
13563;DHT22;31150;49.072;7.970;2022-07-01T08:48:53;19.10;99.90
13563;DHT22;31150;49.072;7.970;2022-07-01T08:53:56;19.60;99.90
13563;DHT22;31150;49.072;7.970;2022-07-01T08:58:59;19.60;99.90
13563;DHT22;31150;49.072;7.970;2022-07-01T09:04:17;19.20;99.90
13563;DHT22;31150;49.072;7.970;2022-07-01T09:09:22;18.80;99.90
13563;DHT22;31150;49.072;7.970;2022-07-01T09:14:28;19.00;99.90
13563;DHT22;31150;49.072;7.970;2022-07-01T09:19:36;20.10;99.90
13563;DHT22;31150;49.072;7.970;2022-07-01T09:24:47;19.90;99.90
13563;DHT22;31150;49.072;7.970;2022-07-01T09:29:51;20.20;99.90
13563;DHT22;31150;49.072;7.970;2022-07-01T09:34:54;21.30;99.90
13563;DHT22;31150;49.072;7.970;2022-07-01T09:39:59;21.40;99.90
13563;DHT22;31150;49.072;7.970;2022-07-01T09:45:04;21.50;99.90
13563;DHT22;31150;49.072;7.970;2022-07-01T09:50:10;21.80;99.90
13563;DHT22;31150;49.072;7.970;2022-07-01T09:55:12;22.10;99.90
13563;DHT22;31150;49.072;7.970;2022-07-01T10:00:15;21.70;99.90
13563;DHT22;31150;49.072;7.970;2022-07-01T10:05:21;21.80;99.90
13563;DHT22;31150;49.072;7.970;2022-07-01T10:15:59;25.10;99.90
13563;DHT22;31150;49.072;7.970;2022-07-01T10:21:04;26.30;99.90
13563;DHT22;31150;49.072;7.970;2022-07-01T10:26:09;28.20;99.90
13563;DHT22;31150;49.072;7.970;2022-07-01T10:31:16;30.60;94.50
13563;DHT22;31150;49.072;7.970;2022-07-01T10:36:27;30.10;87.40
13563;DHT22;31150;49.072;7.970;2022-07-01T10:41:34;27.00;92.30
13563;DHT22;31150;49.072;7.970;2022-07-01T10:47:16;27.40;89.30
13563;DHT22;31150;49.072;7.970;2022-07-01T10:53:03;27.60;91.30
13563;DHT22;31150;49.072;7.970;2022-07-01T10:58:07;29.60;78.90
13563;DHT22;31150;49.072;7.970;2022-07-01T11:03:15;30.00;78.10
13563;DHT22;31150;49.072;7.970;2022-07-01T11:08:22;27.80;79.90
13563;DHT22;31150;49.072;7.970;2022-07-01T11:13:35;26.00;85.80
13563;DHT22;31150;49.072;7.970;2022-07-01T11:18:40;25.60;88.40
13563;DHT22;31150;49.072;7.970;2022-07-01T11:23:53;24.90;91.30
13563;DHT22;31150;49.072;7.970;2022-07-01T11:28:59;25.10;91.40
13563;DHT22;31150;49.072;7.970;2022-07-01T11:34:04;26.90;90.20
13563;DHT22;31150;49.072;7.970;2022-07-01T11:39:08;29.40;77.00
13563;DHT22;31150;49.072;7.970;2022-07-01T11:44:35;31.00;72.00
13563;DHT22;31150;49.072;7.970;2022-07-01T11:49:48;31.60;68.80
13563;DHT22;31150;49.072;7.970;2022-07-01T11:54:54;31.80;65.10
13563;DHT22;31150;49.072;7.970;2022-07-01T12:00:20;29.20;71.00
13563;DHT22;31150;49.072;7.970;2022-07-01T12:05:26;30.50;68.60
13563;DHT22;31150;49.072;7.970;2022-07-01T12:10:30;31.00;67.50
13563;DHT22;31150;49.072;7.970;2022-07-01T12:15:33;28.60;73.90
13563;DHT22;31150;49.072;7.970;2022-07-01T12:20:36;26.90;79.50
13563;DHT22;31150;49.072;7.970;2022-07-01T12:25:40;26.00;83.80
13563;DHT22;31150;49.072;7.970;2022-07-01T12:30:58;25.60;90.40
13563;DHT22;31150;49.072;7.970;2022-07-01T12:36:07;25.70;89.90
13563;DHT22;31150;49.072;7.970;2022-07-01T12:41:33;26.00;89.10
13563;DHT22;31150;49.072;7.970;2022-07-01T12:46:42;26.30;90.10
13563;DHT22;31150;49.072;7.970;2022-07-01T12:51:50;26.40;89.30
13563;DHT22;31150;49.072;7.970;2022-07-01T12:56:56;26.00;90.40
13563;DHT22;31150;49.072;7.970;2022-07-01T13:02:00;25.20;93.50
13563;DHT22;31150;49.072;7.970;2022-07-01T13:07:05;25.40;92.70
13563;DHT22;31150;49.072;7.970;2022-07-01T13:12:12;25.40;92.50
13563;DHT22;31150;49.072;7.970;2022-07-01T13:17:16;24.60;93.40
13563;DHT22;31150;49.072;7.970;2022-07-01T13:22:19;24.70;94.60
13563;DHT22;31150;49.072;7.970;2022-07-01T13:27:22;24.10;92.70
13563;DHT22;31150;49.072;7.970;2022-07-01T13:32:26;23.60;94.10
13563;DHT22;31150;49.072;7.970;2022-07-01T13:37:31;23.30;94.80
13563;DHT22;31150;49.072;7.970;2022-07-01T13:42:35;23.00;96.90
13563;DHT22;31150;49.072;7.970;2022-07-01T13:47:38;23.20;96.60
13563;DHT22;31150;49.072;7.970;2022-07-01T13:52:43;23.70;95.50
13563;DHT22;31150;49.072;7.970;2022-07-01T13:57:48;28.20;90.60
13563;DHT22;31150;49.072;7.970;2022-07-01T14:02:52;32.80;69.80
13563;DHT22;31150;49.072;7.970;2022-07-01T14:07:56;35.20;57.20
13563;DHT22;31150;49.072;7.970;2022-07-01T14:13:01;35.00;52.10
13563;DHT22;31150;49.072;7.970;2022-07-01T14:18:05;35.10;52.70
13563;DHT22;31150;49.072;7.970;2022-07-01T14:23:10;36.90;49.50
13563;DHT22;31150;49.072;7.970;2022-07-01T14:28:16;37.90;47.10
13563;DHT22;31150;49.072;7.970;2022-07-01T14:33:21;35.40;47.20
13563;DHT22;31150;49.072;7.970;2022-07-01T14:38:27;31.20;53.70
13563;DHT22;31150;49.072;7.970;2022-07-01T14:43:33;28.30;60.20
13563;DHT22;31150;49.072;7.970;2022-07-01T14:48:39;30.50;59.30
13563;DHT22;31150;49.072;7.970;2022-07-01T14:53:43;30.70;60.10
13563;DHT22;31150;49.072;7.970;2022-07-01T14:58:54;31.20;57.10
13563;DHT22;31150;49.072;7.970;2022-07-01T15:03:58;29.70;59.80
13563;DHT22;31150;49.072;7.970;2022-07-01T15:09:01;30.80;61.60
13563;DHT22;31150;49.072;7.970;2022-07-01T15:14:05;29.50;64.50
13563;DHT22;31150;49.072;7.970;2022-07-01T15:19:08;26.60;74.60
13563;DHT22;31150;49.072;7.970;2022-07-01T15:24:12;25.20;81.50
13563;DHT22;31150;49.072;7.970;2022-07-01T15:29:15;24.70;86.70
13563;DHT22;31150;49.072;7.970;2022-07-01T15:34:23;24.00;90.50
13563;DHT22;31150;49.072;7.970;2022-07-01T15:39:28;23.90;90.80
13563;DHT22;31150;49.072;7.970;2022-07-01T15:44:33;23.80;92.50
13563;DHT22;31150;49.072;7.970;2022-07-01T15:49:39;23.90;92.80
13563;DHT22;31150;49.072;7.970;2022-07-01T15:54:49;24.60;92.10
13563;DHT22;31150;49.072;7.970;2022-07-01T15:59:53;25.00;92.70
13563;DHT22;31150;49.072;7.970;2022-07-01T16:04:58;25.10;93.20
13563;DHT22;31150;49.072;7.970;2022-07-01T16:15:34;23.60;94.00
13563;DHT22;31150;49.072;7.970;2022-07-01T16:20:45;23.50;96.00
13563;DHT22;31150;49.072;7.970;2022-07-01T16:25:51;23.60;97.30
13563;DHT22;31150;49.072;7.970;2022-07-01T16:31:01;23.80;96.90
13563;DHT22;31150;49.072;7.970;2022-07-01T16:36:24;23.50;96.60
13563;DHT22;31150;49.072;7.970;2022-07-01T16:46:45;23.40;98.20
13563;DHT22;31150;49.072;7.970;2022-07-01T16:51:56;23.00;99.90
13563;DHT22;31150;49.072;7.970;2022-07-01T16:57:04;22.70;99.90
13563;DHT22;31150;49.072;7.970;2022-07-01T17:02:11;23.30;99.90
13563;DHT22;31150;49.072;7.970;2022-07-01T17:07:18;23.10;99.20
13563;DHT22;31150;49.072;7.970;2022-07-01T17:12:23;23.00;99.10
13563;DHT22;31150;49.072;7.970;2022-07-01T17:17:28;22.80;99.90
13563;DHT22;31150;49.072;7.970;2022-07-01T17:22:37;22.60;99.90
13563;DHT22;31150;49.072;7.970;2022-07-01T17:33:46;22.80;99.90
13563;DHT22;31150;49.072;7.970;2022-07-01T17:39:15;22.70;99.90
13563;DHT22;31150;49.072;7.970;2022-07-01T17:44:22;22.70;99.90
13563;DHT22;31150;49.072;7.970;2022-07-01T17:49:28;22.40;99.90
13563;DHT22;31150;49.072;7.970;2022-07-01T17:54:40;22.50;99.90
13563;DHT22;31150;49.072;7.970;2022-07-01T17:59:47;22.50;99.90
13563;DHT22;31150;49.072;7.970;2022-07-01T18:04:53;22.40;99.90
13563;DHT22;31150;49.072;7.970;2022-07-01T18:09:58;22.10;99.90
13563;DHT22;31150;49.072;7.970;2022-07-01T18:15:12;21.80;99.90
13563;DHT22;31150;49.072;7.970;2022-07-01T18:26:05;21.20;99.90
13563;DHT22;31150;49.072;7.970;2022-07-01T18:31:13;21.00;99.90
13563;DHT22;31150;49.072;7.970;2022-07-01T18:36:25;20.70;99.90
13563;DHT22;31150;49.072;7.970;2022-07-01T18:41:36;20.40;99.90
13563;DHT22;31150;49.072;7.970;2022-07-01T18:46:43;20.20;99.90
13563;DHT22;31150;49.072;7.970;2022-07-01T18:51:47;20.20;99.90
13563;DHT22;31150;49.072;7.970;2022-07-01T18:56:51;20.30;99.90
13563;DHT22;31150;49.072;7.970;2022-07-01T19:01:58;20.00;99.90
13563;DHT22;31150;49.072;7.970;2022-07-01T19:07:03;19.70;99.90
13563;DHT22;31150;49.072;7.970;2022-07-01T19:12:09;19.40;99.90
13563;DHT22;31150;49.072;7.970;2022-07-01T19:17:15;19.10;99.90
13563;DHT22;31150;49.072;7.970;2022-07-01T19:22:21;18.80;99.90
13563;DHT22;31150;49.072;7.970;2022-07-01T19:32:59;18.40;99.90
13563;DHT22;31150;49.072;7.970;2022-07-01T19:38:07;18.00;99.90
13563;DHT22;31150;49.072;7.970;2022-07-01T19:43:20;17.80;99.90
13563;DHT22;31150;49.072;7.970;2022-07-01T19:48:25;17.70;99.90
13563;DHT22;31150;49.072;7.970;2022-07-01T19:53:31;17.50;99.90
13563;DHT22;31150;49.072;7.970;2022-07-01T19:58:36;17.40;99.90
13563;DHT22;31150;49.072;7.970;2022-07-01T20:03:46;17.30;99.90
13563;DHT22;31150;49.072;7.970;2022-07-01T20:08:52;17.20;99.90
13563;DHT22;31150;49.072;7.970;2022-07-01T20:13:57;17.10;99.90
13563;DHT22;31150;49.072;7.970;2022-07-01T20:19:03;16.90;99.90
13563;DHT22;31150;49.072;7.970;2022-07-01T20:24:10;16.90;99.90
13563;DHT22;31150;49.072;7.970;2022-07-01T20:29:16;16.80;99.90
13563;DHT22;31150;49.072;7.970;2022-07-01T20:34:22;16.70;99.90
13563;DHT22;31150;49.072;7.970;2022-07-01T20:39:45;16.70;99.90
13563;DHT22;31150;49.072;7.970;2022-07-01T20:44:50;16.60;99.90
13563;DHT22;31150;49.072;7.970;2022-07-01T20:49:55;16.60;99.90
13563;DHT22;31150;49.072;7.970;2022-07-01T20:55:01;16.50;99.90
13563;DHT22;31150;49.072;7.970;2022-07-01T21:00:06;16.50;99.90
13563;DHT22;31150;49.072;7.970;2022-07-01T21:05:12;16.40;99.90
13563;DHT22;31150;49.072;7.970;2022-07-01T21:10:17;16.40;99.90
13563;DHT22;31150;49.072;7.970;2022-07-01T21:15:22;16.20;99.90
13563;DHT22;31150;49.072;7.970;2022-07-01T21:20:29;16.20;99.90
13563;DHT22;31150;49.072;7.970;2022-07-01T21:25:32;16.10;99.90
13563;DHT22;31150;49.072;7.970;2022-07-01T21:30:35;16.10;99.90
13563;DHT22;31150;49.072;7.970;2022-07-01T21:35:41;16.00;99.90
13563;DHT22;31150;49.072;7.970;2022-07-01T21:40:44;15.90;99.90
13563;DHT22;31150;49.072;7.970;2022-07-01T21:45:47;15.90;99.90
13563;DHT22;31150;49.072;7.970;2022-07-01T21:50:51;15.90;99.90
13563;DHT22;31150;49.072;7.970;2022-07-01T21:55:56;15.80;99.90
13563;DHT22;31150;49.072;7.970;2022-07-01T22:00:59;15.70;99.90
13563;DHT22;31150;49.072;7.970;2022-07-01T22:06:03;15.70;99.90
13563;DHT22;31150;49.072;7.970;2022-07-01T22:11:26;15.70;99.90
13563;DHT22;31150;49.072;7.970;2022-07-01T22:16:31;15.70;99.90
13563;DHT22;31150;49.072;7.970;2022-07-01T22:21:35;15.70;99.90
13563;DHT22;31150;49.072;7.970;2022-07-01T22:26:40;15.80;99.90
13563;DHT22;31150;49.072;7.970;2022-07-01T22:31:44;15.70;99.90
13563;DHT22;31150;49.072;7.970;2022-07-01T22:36:47;15.70;99.90
13563;DHT22;31150;49.072;7.970;2022-07-01T22:41:51;15.70;99.90
13563;DHT22;31150;49.072;7.970;2022-07-01T22:47:04;15.70;99.90
13563;DHT22;31150;49.072;7.970;2022-07-01T22:57:45;15.70;99.90
13563;DHT22;31150;49.072;7.970;2022-07-01T23:03:02;15.60;99.90
13563;DHT22;31150;49.072;7.970;2022-07-01T23:08:10;15.60;99.90
13563;DHT22;31150;49.072;7.970;2022-07-01T23:13:32;15.50;99.90
13563;DHT22;31150;49.072;7.970;2022-07-01T23:18:38;15.50;99.90
13563;DHT22;31150;49.072;7.970;2022-07-01T23:23:44;15.50;99.90
13563;DHT22;31150;49.072;7.970;2022-07-01T23:28:47;15.50;99.90
13563;DHT22;31150;49.072;7.970;2022-07-01T23:33:52;15.50;99.90
13563;DHT22;31150;49.072;7.970;2022-07-01T23:38:56;15.40;99.90
13563;DHT22;31150;49.072;7.970;2022-07-01T23:44:01;15.40;99.90
13563;DHT22;31150;49.072;7.970;2022-07-01T23:49:04;15.40;99.90
13563;DHT22;31150;49.072;7.970;2022-07-01T23:54:06;15.30;99.90
13563;DHT22;31150;49.072;7.970;2022-07-01T23:59:09;15.30;99.90
